KDUG/DUG METAR and TAF weather

Enter ICAO airport designator
Station Type Date Time Source
KDUG METAR 2018/01/19 22:56 UTC NOAA

KDUG 192256Z AUTO 15007KT 10SM CLR 21/M08 A3001 RMK AO2 SLP136 T02111083


Station Type Date Time Source
KDUG Decoded METAR 2018/01/19 22:56 UTC NOAA

BISBEE DOUGLAS INTERNATIONAL AIRPORT , AZ, United States (KDUG) 31-28N 109-36W
Jan 19, 2018 - 05:56 PM EST / 2018.01.19 2256 UTC
Wind: from the SSE (150 degrees) at 8 MPH (7 KT):0
Visibility: 10 mile(s):0
Sky conditions: clear
Temperature: 70.0 F (21.1 C)
Dew Point: 17.1 F (-8.3 C)
Relative Humidity: 13%
Pressure (altimeter): 30.01 in. Hg (1016 hPa)
ob: KDUG 192256Z AUTO 15007KT 10SM CLR 21/M08 A3001 RMK AO2 SLP136 T02111083
cycle: 23

Station Type Date Time Source
KDUG TAF 2018/01/19 18:22 UTC NOAA

TAF KDUG 191720Z 1918/2018 VRB04KT P6SM FEW250
FM192000 21009KT P6SM FEW250
FM200800 16008KT P6SM SCT250


Example: see airport list